DW0000 Weather Reports


Display with metric or nautical units.
time (UTC)temp
F
wind
direction
speed
MPH
gust
MPH
rain 1hr
in
rain 24hr
in
rain mn
in
humidity
%
barometer
mb
20211028113907 58 113 1.0 2.0 0.00 0.38 0.00 99 1013.7
20211028113406 58 113 2.0 3.0 0.00 0.38 0.00 99 1013.7
20211028112907 58 105 2.0 3.0 0.00 0.38 0.00 99 1013.8
20211028111907 58 105 2.0 3.0 0.00 0.38 0.00 99 1014.0
20211028111406 58 130 2.0 3.0 0.00 0.38 0.00 99 1014.1
20211028110407 59 105 2.0 3.0 0.00 0.38 0.00 99 1014.3
20211028105907 59 93 1.0 3.0 0.00 0.38 0.00 99 1014.2
20211028104906 59 94 2.0 3.0 0.00 0.40 0.38 99 1014.2
20211028104405 59 83 1.0 3.0 0.00 0.41 0.38 99 1014.3
20211028103907 59 67 1.0 2.0 0.00 0.42 0.38 99 1014.2
20211028103405 59 63 1.0 3.0 0.00 0.42 0.38 99 1014.4
20211028102907 59 42 1.0 3.0 0.00 0.42 0.38 99 1014.5
20211028102405 59 57 2.0 3.0 0.00 0.42 0.38 99 1014.5
20211028101907 59 44 2.0 3.0 0.00 0.42 0.38 99 1014.5
20211028100906 59 98 0.0 2.0 0.00 0.42 0.38 99 1014.4
20211028100406 59 103 1.0 2.0 0.00 0.43 0.38 99 1014.5
20211028095907 59 104 1.0 3.0 0.00 0.43 0.38 99 1014.5
20211028095405 59 104 1.0 2.0 0.00 0.43 0.38 99 1014.5
20211028094910 59 103 2.0 3.0 0.00 0.43 0.38 99 1014.5
20211028093907 59 106 1.0 2.0 0.00 0.43 0.38 99 1014.5
20211028093406 59 107 3.0 6.0 0.00 0.43 0.38 99 1014.4
20211028092907 59 102 5.0 7.0 0.00 0.43 0.38 99 1014.4
20211028092405 59 109 5.0 8.0 0.00 0.43 0.38 99 1014.4
20211028091907 59 106 3.0 6.0 0.00 0.43 0.38 99 1014.4
20211028091405 59 91 3.0 6.0 0.00 0.43 0.38 99 1014.4
20211028090406 59 101 2.0 3.0 0.00 0.43 0.38 99 1014.5
20211028085907 59 90 2.0 3.0 0.00 0.43 0.38 99 1014.5
20211028085406 59 97 3.0 6.0 0.00 0.43 0.38 99 1014.5
20211028084908 59 101 4.0 7.0 0.00 0.43 0.38 99 1014.5
20211028084405 59 84 3.0 7.0 0.00 0.43 0.38 99 1014.4
20211028083406 59 98 5.0 7.0 0.00 0.43 0.38 99 1014.4
20211028082907 59 89 5.0 7.0 0.00 0.43 0.38 99 1014.3
20211028081906 59 109 3.0 7.0 0.00 0.43 0.38 99 1014.2
20211028081406 59 113 3.0 8.0 0.01 0.43 0.38 99 1014.3
20211028080906 59 111 3.0 9.0 0.01 0.43 0.38 99 1014.1
20211028080405 59 122 5.0 10.0 0.01 0.43 0.38 99 1014.1
20211028075906 59 125 5.0 9.0 0.01 0.43 0.38 99 1014.2
20211028074906 59 135 7.0 12.0 0.02 0.44 0.38 99 1014.2
20211028072906 60 134 6.0 10.0 0.07 0.44 0.38 99 1014.3
20211028072406 60 136 7.0 12.0 0.11 0.44 0.38 99 1014.2
20211028071906 60 121 7.0 10.0 0.12 0.44 0.38 99 1014.3
20211028071407 60 111 4.0 8.0 0.13 0.43 0.37 99 1014.5
20211028070907 60 136 7.0 10.0 0.14 0.43 0.37 99 1014.4
20211028065407 60 125 3.0 7.0 0.16 0.43 0.37 99 1014.7
20211028064908 60 132 6.0 10.0 0.17 0.42 0.36 99 1014.6
20211028064406 60 141 6.0 10.0 0.16 0.41 0.35 99 1014.7
20211028063906 60 114 3.0 12.0 0.16 0.40 0.34 99 1014.8
20211028063405 60 143 7.0 10.0 0.14 0.38 0.32 99 1014.6
20211028062406 60 225 5.0 8.0 0.11 0.34 0.28 100 1014.8
20211028060406 60 202 5.0 7.0 0.08 0.29 0.23 100 1014.5
20211028055907 60 186 3.0 10.0 0.08 0.28 0.22 100 1014.5
20211028054906 60 192 5.0 12.0 0.08 0.25 0.19 100 1014.4
20211028053907 60 192 10.0 13.0 0.08 0.25 0.18 99 1014.0
20211028053406 60 199 10.0 14.0 0.08 0.26 0.18 99 1014.0
20211028052906 60 188 11.0 17.0 0.08 0.25 0.17 99 1014.1
20211028051906 60 183 9.0 14.0 0.08 0.26 0.17 98 1014.1
20211028051406 60 180 6.0 9.0 0.10 0.28 0.17 98 1014.3
20211028050406 60 249 6.0 12.0 0.07 0.29 0.14 98 1014.5
20211028045906 61 254 9.0 12.0 0.07 0.30 0.13 98 1014.5
20211028044906 61 16 6.0 13.0 0.05 0.28 0.11 98 1014.2
20211028044406 62 47 6.0 13.0 0.04 0.26 0.10 97 1014.1
20211028043906 62 32 5.0 10.0 0.04 0.26 0.10 97 1014.0
20211028043405 62 74 1.0 3.0 0.04 0.26 0.10 97 1014.0
20211028042906 62 78 1.0 3.0 0.02 0.25 0.08 97 1014.0
20211028042405 62 56 2.0 3.0 0.02 0.25 0.08 96 1014.0
20211028041405 62 87 2.0 3.0 0.01 0.24 0.07 96 1014.1
20211028040906 63 52 1.0 3.0 0.01 0.24 0.07 96 1014.1
20211028040405 63 12 1.0 3.0 0.01 0.24 0.07 95 1014.2
20211028035906 62 113 1.0 9.0 0.00 0.23 0.06 95 1014.1
20211028035405 62 38 3.0 8.0 0.00 0.23 0.06 95 1014.1
20211028034906 62 71 5.0 12.0 0.00 0.23 0.06 94 1014.1
20211028034405 63 32 8.0 12.0 0.00 0.23 0.06 93 1014.2
20211028033405 63 26 10.0 14.0 0.00 0.23 0.06 91 1014.2
20211028030405 64 33 8.0 15.0 0.00 0.25 0.06 89 1014.3
20211028025406 64 28 10.0 17.0 0.00 0.25 0.06 88 1014.5
20211028024905 64 38 6.0 12.0 0.00 0.26 0.06 89 1014.6
20211028024405 64 14 12.0 16.0 0.00 0.26 0.06 88 1014.6
20211028023905 64 89 4.0 12.0 0.00 0.29 0.06 89 1014.8
20211028023405 64 40 9.0 16.0 0.00 0.29 0.06 88 1014.8
20211028021906 64 22 9.0 16.0 0.00 0.31 0.06 87 1014.8
20211028021405 64 26 13.0 20.0 0.00 0.31 0.06 87 1014.7
20211028020405 64 25 6.0 10.0 0.00 0.34 0.06 88 1014.9
20211028015906 64 45 2.0 12.0 0.00 0.35 0.06 88 1014.9
20211028015405 64 53 5.0 12.0 0.00 0.36 0.06 89 1015.0
20211028014905 63 82 5.0 12.0 0.00 0.38 0.06 89 1015.0
20211028014406 63 24 4.0 13.0 0.00 0.40 0.06 89 1015.1
20211028013905 64 44 5.0 14.0 0.00 0.41 0.06 89 1015.2
20211028013405 63 39 8.0 16.0 0.00 0.41 0.06 89 1015.2
20211028012906 63 41 9.0 18.0 0.00 0.41 0.06 89 1015.3
20211028012405 64 25 10.0 18.0 0.00 0.41 0.06 89 1015.4
20211028011405 63 39 5.0 10.0 0.00 0.41 0.06 88 1015.5
20211028010905 63 43 5.0 12.0 0.00 0.41 0.06 89 1015.5
20211028005906 63 16 12.0 17.0 0.00 0.41 0.06 89 1015.7
20211028005405 63 25 13.0 18.0 0.00 0.41 0.06 89 1015.7
20211028004907 64 14 13.0 18.0 0.00 0.42 0.06 88 1015.6
20211028003405 64 49 6.0 13.0 0.00 0.43 0.06 86 1015.5
20211028002906 63 68 5.0 10.0 0.00 0.43 0.06 85 1015.6
20211028002405 63 46 3.0 9.0 0.00 0.44 0.06 86 1015.6
20211028001905 63 46 6.0 12.0 0.00 0.46 0.06 85 1015.7
20211028001405 63 11 3.0 8.0 0.00 0.48 0.06 86 1015.9
20211028000905 63 95 3.0 12.0 0.00 0.48 0.06 87 1015.9
20211028000408 63 54 5.0 14.0 0.00 0.49 0.06 85 1015.9
20211027235905 63 64 9.0 14.0 0.00 0.50 0.06 83 1015.8
20211027235405 63 45 6.0 15.0 0.00 0.50 0.06 84 1015.8
20211027234905 63 53 7.0 15.0 0.00 0.52 0.06 84 1015.9
20211027234405 63 108 2.0 7.0 0.00 0.53 0.06 87 1015.8
20211027232905 62 63 5.0 12.0 0.00 0.54 0.06 84 1015.9
20211027232405 63 75 3.0 12.0 0.00 0.54 0.06 86 1016.0
20211027231407 64 91 5.0 12.0 0.00 0.56 0.06 88 1016.1
20211027230405 65 107 3.0 9.0 0.00 0.59 0.06 93 1016.3
20211027225906 65 34 2.0 7.0 0.01 0.60 0.06 93 1016.4
20211027225405 64 100 4.0 9.0 0.01 0.61 0.06 93 1016.5
20211027224906 64 47 5.0 8.0 0.01 0.61 0.06 93 1016.5
20211027224405 64 55 3.0 10.0 0.01 0.61 0.06 95 1016.6
20211027223906 64 25 9.0 14.0 0.01 0.61 0.06 95 1016.6
20211027222906 64 50 4.0 10.0 0.01 0.61 0.06 99 1016.6
20211027222405 63 53 5.0 14.0 0.02 0.61 0.06 100 1016.8
20211027221906 64 25 10.0 16.0 0.02 0.61 0.06 100 1016.8
20211027220905 64 71 5.0 12.0 0.05 0.61 0.06 100 1016.9
20211027220405 64 28 5.0 9.0 0.05 0.61 0.06 100 1016.9
20211027215906 64 35 6.0 12.0 0.04 0.60 0.05 100 1016.9
20211027215405 64 61 2.0 8.0 0.04 0.60 0.05 100 1017.0
20211027213405 63 86 3.0 9.0 0.05 0.60 0.05 100 1017.1
20211027212906 63 52 5.0 9.0 0.05 0.60 0.05 100 1017.2
20211027212405 63 89 2.0 3.0 0.04 0.59 0.04 100 1017.3
20211027211905 62 90 2.0 9.0 0.04 0.59 0.04 100 1017.4
20211027210905 63 57 3.0 10.0 0.01 0.56 0.01 100 1017.5
20211027205405 63 86 1.0 6.0 0.01 0.56 0.01 100 1017.5
20211027204905 63 76 2.0 5.0 0.01 0.56 0.01 100 1017.5
20211027204405 63 75 2.0 7.0 0.01 0.56 0.01 100 1017.4
20211027203405 62 57 3.0 7.0 0.00 0.55 0.00 100 1017.6
20211027202906 63 56 3.0 8.0 0.00 0.55 0.00 99 1017.6
20211027201906 62 48 5.0 8.0 0.00 0.55 0.00 99 1017.7
20211027201405 63 61 2.0 6.0 0.00 0.55 0.00 99 1017.7
20211027200407 63 73 2.0 3.0 0.00 0.55 0.00 99 1017.8
20211027195910 63 55 1.0 3.0 0.00 0.55 0.00 100 1017.7
20211027194906 63 104 0.0 0.0 0.00 0.55 0.00 100 1017.7
20211027193906 62 78 2.0 3.0 0.00 0.55 0.00 99 1017.6
20211027193405 62 62 1.0 3.0 0.00 0.55 0.00 99 1017.7
20211027192404 62 35 1.0 3.0 0.00 0.55 0.00 99 1017.9
20211027191905 62 32 1.0 2.0 0.00 0.55 0.00 99 1018.0
20211027191405 62 32 1.0 2.0 0.00 0.55 0.00 99 1018.1
20211027190905 62 32 1.0 3.0 0.00 0.55 0.00 99 1018.2
20211027190404 62 40 1.0 3.0 0.00 0.55 0.00 99 1018.1
20211027185905 62 65 0.0 3.0 0.00 0.55 0.00 99 1018.1
20211027185404 62 123 0.0 0.0 0.00 0.55 0.00 99 1018.1
20211027184404 62 126 1.0 2.0 0.00 0.55 0.00 99 1018.1
20211027183905 61 126 1.0 2.0 0.00 0.55 0.00 99 1018.0
20211027183405 61 126 1.0 2.0 0.00 0.55 0.00 99 1018.0
20211027182907 61 126 1.0 2.0 0.00 0.55 0.00 99 1018.0
20211027181905 61 107 1.0 3.0 0.00 0.55 0.00 99 1018.0
20211027181405 61 106 0.0 2.0 0.00 0.55 0.00 99 1018.1
20211027180906 61 105 0.0 1.0 0.00 0.55 0.00 99 1018.2
20211027180405 61 105 1.0 2.0 0.00 0.55 0.00 99 1018.1
20211027175905 61 105 1.0 2.0 0.00 0.55 0.00 99 1018.0
20211027175405 61 105 2.0 3.0 0.00 0.55 0.00 99 1017.9
20211027174905 61 105 2.0 3.0 0.00 0.55 0.00 99 1017.7
20211027173905 61 114 2.0 3.0 0.00 0.55 0.00 99 1017.5
20211027173405 61 111 3.0 3.0 0.00 0.55 0.00 99 1017.6
20211027172905 61 111 1.0 2.0 0.00 0.55 0.00 99 1017.7
20211027172404 61 111 1.0 3.0 0.00 0.55 0.00 99 1017.7
20211027171405 61 111 0.0 0.0 0.00 0.55 0.00 99 1018.0
20211027170905 61 111 0.0 0.0 0.00 0.55 0.00 99 1018.0
20211027170405 61 111 0.0 0.0 0.00 0.55 0.00 99 1018.0
20211027165905 61 111 0.0 0.0 0.00 0.55 0.00 99 1018.0
20211027165406 61 111 0.0 0.0 0.00 0.55 0.00 99 1018.1
20211027164905 61 111 0.0 0.0 0.00 0.55 0.00 99 1018.2
20211027164405 61 111 0.0 1.0 0.00 0.55 0.00 99 1018.2
20211027163405 61 111 0.0 1.0 0.00 0.55 0.00 99 1018.1
20211027162905 61 111 0.0 2.0 0.00 0.55 0.00 99 1018.2
20211027162405 61 111 1.0 2.0 0.00 0.55 0.00 99 1018.2
20211027161905 61 111 0.0 2.0 0.00 0.55 0.00 99 1018.2
20211027161404 61 111 0.0 0.0 0.00 0.55 0.00 99 1018.1
20211027160405 61 111 2.0 3.0 0.00 0.55 0.00 99 1018.1
20211027155905 61 111 3.0 5.0 0.00 0.55 0.00 99 1018.0
20211027155405 61 122 2.0 5.0 0.00 0.55 0.00 99 1017.9
20211027154905 61 78 2.0 3.0 0.00 0.55 0.00 99 1018.2
20211027154405 61 85 2.0 3.0 0.00 0.55 0.00 99 1018.2
20211027153905 61 84 2.0 3.0 0.00 0.55 0.00 99 1018.3
20211027153405 61 85 0.0 0.0 0.00 0.55 0.00 99 1018.4
20211027152906 61 85 0.0 3.0 0.00 0.55 0.00 99 1018.4
20211027152404 61 72 2.0 2.0 0.00 0.55 0.00 99 1018.2
20211027151907 61 72 2.0 3.0 0.00 0.55 0.00 99 1018.3
20211027151405 61 62 2.0 3.0 0.00 0.55 0.00 99 1018.3
20211027145905 61 291 0.0 1.0 0.00 0.55 0.00 99 1018.3
20211027145405 61 291 0.0 1.0 0.00 0.55 0.00 99 1018.3
20211027144905 61 291 1.0 3.0 0.00 0.55 0.00 99 1018.6
20211027144404 61 254 1.0 3.0 0.00 0.55 0.00 99 1018.6
20211027143905 61 257 1.0 3.0 0.00 0.55 0.00 99 1018.6
20211027143405 61 262 1.0 3.0 0.00 0.55 0.00 99 1018.8
20211027140905 61 302 1.0 2.0 0.00 0.55 0.00 99 1019.0
20211027140405 61 301 2.0 3.0 0.00 0.55 0.00 99 1019.0
20211027134905 61 285 1.0 3.0 0.00 0.55 0.00 99 1019.0
20211027134406 61 265 0.0 1.0 0.00 0.55 0.00 99 1019.1
20211027133905 61 265 0.0 2.0 0.00 0.55 0.00 99 1019.1
20211027132906 61 267 2.0 3.0 0.00 0.55 0.00 99 1019.3
20211027132404 61 284 0.0 2.0 0.00 0.55 0.00 99 1019.3
20211027131404 61 277 2.0 3.0 0.00 0.55 0.00 99 1019.5
20211027130404 61 276 4.0 6.0 0.00 0.55 0.00 99 1019.4
20211027125905 61 259 5.0 7.0 0.00 0.55 0.00 99 1019.4
20211027124905 61 292 2.0 7.0 0.00 0.55 0.00 99 1019.5
20211027124405 61 281 5.0 8.0 0.00 0.55 0.00 99 1019.6
20211027123905 61 281 7.0 10.0 0.00 0.55 0.00 99 1019.6
20211027123404 61 287 9.0 12.0 0.00 0.55 0.00 99 1019.7
20211027122405 62 271 5.0 8.0 0.00 0.55 0.00 99 1019.7
20211027121905 62 285 5.0 8.0 0.00 0.55 0.00 99 1019.8
20211027121404 62 294 9.0 12.0 0.00 0.55 0.00 99 1019.9
20211027115404 62 299 8.0 12.0 0.00 0.55 0.00 99 1020.0
20211027114905 62 310 5.0 9.0 0.01 0.55 0.00 99 1020.1
20211027114405 62 313 7.0 12.0 0.02 0.55 0.00 99 1020.1